sensor_id;sensor_type;location;lat;lon;timestamp;P1;durP1;ratioP1;P2;durP2;ratioP2
32533;SDS011;18973;48.580;8.912;2023-03-01T00:01:06;31.38;;;17.80;;
32533;SDS011;18973;48.580;8.912;2023-03-01T00:03:34;27.05;;;18.23;;
32533;SDS011;18973;48.580;8.912;2023-03-01T00:06:00;27.50;;;19.02;;
32533;SDS011;18973;48.580;8.912;2023-03-01T00:08:27;29.70;;;20.23;;
32533;SDS011;18973;48.580;8.912;2023-03-01T00:11:35;30.38;;;18.80;;
32533;SDS011;18973;48.580;8.912;2023-03-01T00:13:44;31.92;;;19.13;;
32533;SDS011;18973;48.580;8.912;2023-03-01T00:16:12;26.85;;;19.75;;
32533;SDS011;18973;48.580;8.912;2023-03-01T00:18:41;31.85;;;20.10;;
32533;SDS011;18973;48.580;8.912;2023-03-01T00:21:07;34.85;;;18.80;;
32533;SDS011;18973;48.580;8.912;2023-03-01T00:23:36;30.42;;;19.50;;
32533;SDS011;18973;48.580;8.912;2023-03-01T00:26:05;32.05;;;17.80;;
32533;SDS011;18973;48.580;8.912;2023-03-01T00:28:33;30.50;;;20.23;;
32533;SDS011;18973;48.580;8.912;2023-03-01T00:31:03;30.55;;;18.90;;
32533;SDS011;18973;48.580;8.912;2023-03-01T00:33:39;38.42;;;19.55;;
32533;SDS011;18973;48.580;8.912;2023-03-01T00:36:05;33.40;;;21.23;;
32533;SDS011;18973;48.580;8.912;2023-03-01T00:38:34;33.25;;;20.95;;
32533;SDS011;18973;48.580;8.912;2023-03-01T00:41:11;30.17;;;19.45;;
32533;SDS011;18973;48.580;8.912;2023-03-01T00:43:39;34.67;;;20.38;;
32533;SDS011;18973;48.580;8.912;2023-03-01T00:46:24;30.98;;;21.10;;
32533;SDS011;18973;48.580;8.912;2023-03-01T00:48:51;33.67;;;20.95;;
32533;SDS011;18973;48.580;8.912;2023-03-01T00:53:45;31.15;;;19.77;;
32533;SDS011;18973;48.580;8.912;2023-03-01T00:56:12;28.45;;;19.95;;
32533;SDS011;18973;48.580;8.912;2023-03-01T00:58:39;30.77;;;19.10;;
32533;SDS011;18973;48.580;8.912;2023-03-01T01:01:15;27.55;;;19.20;;
32533;SDS011;18973;48.580;8.912;2023-03-01T01:03:50;36.85;;;19.80;;
32533;SDS011;18973;48.580;8.912;2023-03-01T01:06:21;30.00;;;19.17;;
32533;SDS011;18973;48.580;8.912;2023-03-01T01:08:51;31.58;;;20.48;;
32533;SDS011;18973;48.580;8.912;2023-03-01T01:11:18;31.73;;;20.25;;
32533;SDS011;18973;48.580;8.912;2023-03-01T01:13:45;28.85;;;18.85;;
32533;SDS011;18973;48.580;8.912;2023-03-01T01:16:13;32.50;;;19.85;;
32533;SDS011;18973;48.580;8.912;2023-03-01T01:18:39;34.55;;;20.17;;
32533;SDS011;18973;48.580;8.912;2023-03-01T01:21:06;31.27;;;20.25;;
32533;SDS011;18973;48.580;8.912;2023-03-01T01:23:33;33.92;;;20.33;;
32533;SDS011;18973;48.580;8.912;2023-03-01T01:26:03;28.67;;;19.88;;
32533;SDS011;18973;48.580;8.912;2023-03-01T01:28:30;34.00;;;19.50;;
32533;SDS011;18973;48.580;8.912;2023-03-01T01:30:56;35.75;;;21.02;;
32533;SDS011;18973;48.580;8.912;2023-03-01T01:33:22;30.80;;;20.13;;
32533;SDS011;18973;48.580;8.912;2023-03-01T01:35:48;34.08;;;20.90;;
32533;SDS011;18973;48.580;8.912;2023-03-01T01:38:13;32.40;;;20.65;;
32533;SDS011;18973;48.580;8.912;2023-03-01T01:40:43;34.33;;;20.98;;
32533;SDS011;18973;48.580;8.912;2023-03-01T01:43:23;35.75;;;21.92;;
32533;SDS011;18973;48.580;8.912;2023-03-01T01:45:51;31.75;;;21.55;;
32533;SDS011;18973;48.580;8.912;2023-03-01T01:48:41;32.20;;;20.95;;
32533;SDS011;18973;48.580;8.912;2023-03-01T01:51:13;33.30;;;20.15;;
32533;SDS011;18973;48.580;8.912;2023-03-01T01:53:44;32.38;;;22.48;;
32533;SDS011;18973;48.580;8.912;2023-03-01T01:56:13;33.67;;;21.05;;
32533;SDS011;18973;48.580;8.912;2023-03-01T01:58:41;34.30;;;21.70;;
32533;SDS011;18973;48.580;8.912;2023-03-01T02:01:08;38.30;;;21.55;;
32533;SDS011;18973;48.580;8.912;2023-03-01T02:03:34;35.72;;;21.75;;
32533;SDS011;18973;48.580;8.912;2023-03-01T02:06:10;33.28;;;20.85;;
32533;SDS011;18973;48.580;8.912;2023-03-01T02:08:40;34.95;;;23.38;;
32533;SDS011;18973;48.580;8.912;2023-03-01T02:11:08;32.17;;;21.45;;
32533;SDS011;18973;48.580;8.912;2023-03-01T02:13:35;32.67;;;20.85;;
32533;SDS011;18973;48.580;8.912;2023-03-01T02:16:03;38.20;;;22.73;;
32533;SDS011;18973;48.580;8.912;2023-03-01T02:18:30;32.70;;;22.63;;
32533;SDS011;18973;48.580;8.912;2023-03-01T02:23:24;37.83;;;22.83;;
32533;SDS011;18973;48.580;8.912;2023-03-01T02:28:31;37.53;;;21.45;;
32533;SDS011;18973;48.580;8.912;2023-03-01T02:30:59;39.60;;;22.42;;
32533;SDS011;18973;48.580;8.912;2023-03-01T02:33:44;34.22;;;22.17;;
32533;SDS011;18973;48.580;8.912;2023-03-01T02:36:15;37.38;;;22.75;;
32533;SDS011;18973;48.580;8.912;2023-03-01T02:38:44;34.00;;;22.38;;
32533;SDS011;18973;48.580;8.912;2023-03-01T02:41:11;37.08;;;22.33;;
32533;SDS011;18973;48.580;8.912;2023-03-01T02:43:40;39.10;;;22.88;;
32533;SDS011;18973;48.580;8.912;2023-03-01T02:46:08;33.03;;;21.35;;
32533;SDS011;18973;48.580;8.912;2023-03-01T02:51:21;36.08;;;21.75;;
32533;SDS011;18973;48.580;8.912;2023-03-01T02:56:29;33.33;;;22.55;;
32533;SDS011;18973;48.580;8.912;2023-03-01T02:58:55;33.80;;;21.60;;
32533;SDS011;18973;48.580;8.912;2023-03-01T03:01:26;38.72;;;22.95;;
32533;SDS011;18973;48.580;8.912;2023-03-01T03:04:01;43.03;;;23.17;;
32533;SDS011;18973;48.580;8.912;2023-03-01T03:06:31;37.70;;;22.67;;
32533;SDS011;18973;48.580;8.912;2023-03-01T03:08:57;38.20;;;23.30;;
32533;SDS011;18973;48.580;8.912;2023-03-01T03:11:23;39.75;;;24.83;;
32533;SDS011;18973;48.580;8.912;2023-03-01T03:13:49;38.30;;;22.13;;
32533;SDS011;18973;48.580;8.912;2023-03-01T03:16:16;37.42;;;22.08;;
32533;SDS011;18973;48.580;8.912;2023-03-01T03:18:41;37.40;;;23.08;;
32533;SDS011;18973;48.580;8.912;2023-03-01T03:21:11;33.35;;;22.58;;
32533;SDS011;18973;48.580;8.912;2023-03-01T03:23:37;34.65;;;21.90;;
32533;SDS011;18973;48.580;8.912;2023-03-01T03:26:04;33.80;;;21.83;;
32533;SDS011;18973;48.580;8.912;2023-03-01T03:28:30;34.42;;;22.52;;
32533;SDS011;18973;48.580;8.912;2023-03-01T03:30:57;36.85;;;22.52;;
32533;SDS011;18973;48.580;8.912;2023-03-01T03:33:23;39.42;;;24.45;;
32533;SDS011;18973;48.580;8.912;2023-03-01T03:35:49;37.80;;;23.40;;
32533;SDS011;18973;48.580;8.912;2023-03-01T03:38:16;33.20;;;21.80;;
32533;SDS011;18973;48.580;8.912;2023-03-01T03:41:01;36.85;;;22.63;;
32533;SDS011;18973;48.580;8.912;2023-03-01T03:43:29;36.58;;;23.40;;
32533;SDS011;18973;48.580;8.912;2023-03-01T03:45:57;35.80;;;22.17;;
32533;SDS011;18973;48.580;8.912;2023-03-01T03:48:23;35.88;;;22.17;;
32533;SDS011;18973;48.580;8.912;2023-03-01T03:50:50;35.38;;;22.15;;
32533;SDS011;18973;48.580;8.912;2023-03-01T03:53:18;33.78;;;21.65;;
32533;SDS011;18973;48.580;8.912;2023-03-01T03:55:44;36.97;;;21.55;;
32533;SDS011;18973;48.580;8.912;2023-03-01T03:58:10;34.38;;;22.85;;
32533;SDS011;18973;48.580;8.912;2023-03-01T04:03:04;40.45;;;23.83;;
32533;SDS011;18973;48.580;8.912;2023-03-01T04:05:30;36.28;;;21.55;;
32533;SDS011;18973;48.580;8.912;2023-03-01T04:07:56;36.75;;;21.55;;
32533;SDS011;18973;48.580;8.912;2023-03-01T04:13:02;33.58;;;22.63;;
32533;SDS011;18973;48.580;8.912;2023-03-01T04:15:28;37.05;;;22.08;;
32533;SDS011;18973;48.580;8.912;2023-03-01T04:17:55;44.20;;;23.80;;
32533;SDS011;18973;48.580;8.912;2023-03-01T04:20:22;41.30;;;22.20;;
32533;SDS011;18973;48.580;8.912;2023-03-01T04:22:57;44.97;;;24.25;;
32533;SDS011;18973;48.580;8.912;2023-03-01T04:25:38;41.92;;;23.58;;
32533;SDS011;18973;48.580;8.912;2023-03-01T04:28:10;39.53;;;22.60;;
32533;SDS011;18973;48.580;8.912;2023-03-01T04:30:36;34.97;;;22.52;;
32533;SDS011;18973;48.580;8.912;2023-03-01T04:33:07;41.08;;;22.65;;
32533;SDS011;18973;48.580;8.912;2023-03-01T04:35:33;43.60;;;23.88;;
32533;SDS011;18973;48.580;8.912;2023-03-01T04:38:00;40.50;;;26.38;;
32533;SDS011;18973;48.580;8.912;2023-03-01T04:40:25;39.53;;;23.52;;
32533;SDS011;18973;48.580;8.912;2023-03-01T04:42:51;41.08;;;23.02;;
32533;SDS011;18973;48.580;8.912;2023-03-01T04:45:17;38.58;;;22.30;;
32533;SDS011;18973;48.580;8.912;2023-03-01T04:47:43;39.55;;;24.08;;
32533;SDS011;18973;48.580;8.912;2023-03-01T04:50:11;38.78;;;23.80;;
32533;SDS011;18973;48.580;8.912;2023-03-01T04:52:39;37.10;;;23.63;;
32533;SDS011;18973;48.580;8.912;2023-03-01T04:55:05;38.47;;;23.30;;
32533;SDS011;18973;48.580;8.912;2023-03-01T04:57:32;39.40;;;22.75;;
32533;SDS011;18973;48.580;8.912;2023-03-01T04:59:58;38.60;;;23.65;;
32533;SDS011;18973;48.580;8.912;2023-03-01T05:02:24;38.60;;;22.75;;
32533;SDS011;18973;48.580;8.912;2023-03-01T05:04:49;33.20;;;22.33;;
32533;SDS011;18973;48.580;8.912;2023-03-01T05:07:15;36.85;;;22.75;;
32533;SDS011;18973;48.580;8.912;2023-03-01T05:09:45;40.00;;;23.70;;
32533;SDS011;18973;48.580;8.912;2023-03-01T05:12:11;39.38;;;22.73;;
32533;SDS011;18973;48.580;8.912;2023-03-01T05:14:38;37.63;;;22.83;;
32533;SDS011;18973;48.580;8.912;2023-03-01T05:17:04;39.10;;;23.25;;
32533;SDS011;18973;48.580;8.912;2023-03-01T05:19:30;39.17;;;24.38;;
32533;SDS011;18973;48.580;8.912;2023-03-01T05:21:59;42.30;;;23.80;;
32533;SDS011;18973;48.580;8.912;2023-03-01T05:24:29;33.97;;;23.45;;
32533;SDS011;18973;48.580;8.912;2023-03-01T05:26:57;44.00;;;23.42;;
32533;SDS011;18973;48.580;8.912;2023-03-01T05:29:24;41.90;;;23.88;;
32533;SDS011;18973;48.580;8.912;2023-03-01T05:31:53;37.65;;;23.00;;
32533;SDS011;18973;48.580;8.912;2023-03-01T05:34:23;36.42;;;22.58;;
32533;SDS011;18973;48.580;8.912;2023-03-01T05:36:50;37.80;;;24.30;;
32533;SDS011;18973;48.580;8.912;2023-03-01T05:39:18;38.65;;;23.60;;
32533;SDS011;18973;48.580;8.912;2023-03-01T05:41:51;41.90;;;24.63;;
32533;SDS011;18973;48.580;8.912;2023-03-01T05:44:21;40.13;;;23.58;;
32533;SDS011;18973;48.580;8.912;2023-03-01T05:46:47;41.25;;;23.95;;
32533;SDS011;18973;48.580;8.912;2023-03-01T05:49:13;36.88;;;24.80;;
32533;SDS011;18973;48.580;8.912;2023-03-01T05:51:42;46.13;;;24.17;;
32533;SDS011;18973;48.580;8.912;2023-03-01T05:54:12;35.95;;;22.75;;
32533;SDS011;18973;48.580;8.912;2023-03-01T05:56:38;39.35;;;23.40;;
32533;SDS011;18973;48.580;8.912;2023-03-01T05:59:04;41.88;;;24.48;;
32533;SDS011;18973;48.580;8.912;2023-03-01T06:01:30;40.33;;;24.80;;
32533;SDS011;18973;48.580;8.912;2023-03-01T06:03:56;38.47;;;23.20;;
32533;SDS011;18973;48.580;8.912;2023-03-01T06:06:22;40.60;;;23.83;;
32533;SDS011;18973;48.580;8.912;2023-03-01T06:08:49;42.42;;;25.65;;
32533;SDS011;18973;48.580;8.912;2023-03-01T06:11:15;36.03;;;22.33;;
32533;SDS011;18973;48.580;8.912;2023-03-01T06:13:41;44.55;;;25.58;;
32533;SDS011;18973;48.580;8.912;2023-03-01T06:16:08;38.42;;;23.20;;
32533;SDS011;18973;48.580;8.912;2023-03-01T06:18:34;38.17;;;23.42;;
32533;SDS011;18973;48.580;8.912;2023-03-01T06:21:00;39.55;;;25.00;;
32533;SDS011;18973;48.580;8.912;2023-03-01T06:23:25;39.00;;;23.63;;
32533;SDS011;18973;48.580;8.912;2023-03-01T06:25:51;45.92;;;24.75;;
32533;SDS011;18973;48.580;8.912;2023-03-01T06:28:17;40.15;;;23.58;;
32533;SDS011;18973;48.580;8.912;2023-03-01T06:30:43;38.53;;;23.15;;
32533;SDS011;18973;48.580;8.912;2023-03-01T06:33:09;42.13;;;24.10;;
32533;SDS011;18973;48.580;8.912;2023-03-01T06:35:35;38.40;;;24.10;;
32533;SDS011;18973;48.580;8.912;2023-03-01T06:38:01;39.08;;;22.70;;
32533;SDS011;18973;48.580;8.912;2023-03-01T06:40:28;40.20;;;22.88;;
32533;SDS011;18973;48.580;8.912;2023-03-01T06:42:56;40.20;;;23.60;;
32533;SDS011;18973;48.580;8.912;2023-03-01T06:45:22;41.17;;;24.50;;
32533;SDS011;18973;48.580;8.912;2023-03-01T06:47:49;39.83;;;23.38;;
32533;SDS011;18973;48.580;8.912;2023-03-01T06:50:15;38.35;;;24.48;;
32533;SDS011;18973;48.580;8.912;2023-03-01T06:52:41;42.60;;;23.75;;
32533;SDS011;18973;48.580;8.912;2023-03-01T06:55:09;41.80;;;24.33;;
32533;SDS011;18973;48.580;8.912;2023-03-01T06:57:35;37.28;;;24.20;;
32533;SDS011;18973;48.580;8.912;2023-03-01T07:00:02;37.05;;;24.20;;
32533;SDS011;18973;48.580;8.912;2023-03-01T07:02:29;40.08;;;23.52;;
32533;SDS011;18973;48.580;8.912;2023-03-01T07:04:54;36.45;;;22.63;;
32533;SDS011;18973;48.580;8.912;2023-03-01T07:07:20;36.55;;;23.20;;
32533;SDS011;18973;48.580;8.912;2023-03-01T07:09:46;37.33;;;23.88;;
32533;SDS011;18973;48.580;8.912;2023-03-01T07:12:13;37.67;;;22.15;;
32533;SDS011;18973;48.580;8.912;2023-03-01T07:14:39;40.03;;;24.05;;
32533;SDS011;18973;48.580;8.912;2023-03-01T07:17:04;41.13;;;23.08;;
32533;SDS011;18973;48.580;8.912;2023-03-01T07:19:30;37.67;;;23.33;;
32533;SDS011;18973;48.580;8.912;2023-03-01T07:21:56;39.05;;;23.80;;
32533;SDS011;18973;48.580;8.912;2023-03-01T07:24:22;43.28;;;24.38;;
32533;SDS011;18973;48.580;8.912;2023-03-01T07:26:48;38.08;;;23.50;;
32533;SDS011;18973;48.580;8.912;2023-03-01T07:29:15;39.10;;;24.70;;
32533;SDS011;18973;48.580;8.912;2023-03-01T07:31:40;38.40;;;22.73;;
32533;SDS011;18973;48.580;8.912;2023-03-01T07:34:06;37.65;;;23.48;;
32533;SDS011;18973;48.580;8.912;2023-03-01T07:36:32;40.75;;;23.60;;
32533;SDS011;18973;48.580;8.912;2023-03-01T07:38:58;37.58;;;22.80;;
32533;SDS011;18973;48.580;8.912;2023-03-01T07:41:23;41.45;;;23.85;;
32533;SDS011;18973;48.580;8.912;2023-03-01T07:43:49;39.83;;;23.65;;
32533;SDS011;18973;48.580;8.912;2023-03-01T07:46:15;42.45;;;23.50;;
32533;SDS011;18973;48.580;8.912;2023-03-01T07:48:41;34.72;;;22.30;;
32533;SDS011;18973;48.580;8.912;2023-03-01T07:51:07;37.72;;;21.65;;
32533;SDS011;18973;48.580;8.912;2023-03-01T07:53:33;33.67;;;20.67;;
32533;SDS011;18973;48.580;8.912;2023-03-01T07:58:29;33.20;;;19.67;;
32533;SDS011;18973;48.580;8.912;2023-03-01T08:00:54;31.02;;;17.92;;
32533;SDS011;18973;48.580;8.912;2023-03-01T08:03:20;33.55;;;20.08;;
32533;SDS011;18973;48.580;8.912;2023-03-01T08:05:46;33.72;;;19.58;;
32533;SDS011;18973;48.580;8.912;2023-03-01T08:08:11;33.88;;;20.75;;
32533;SDS011;18973;48.580;8.912;2023-03-01T08:10:37;33.10;;;20.13;;
32533;SDS011;18973;48.580;8.912;2023-03-01T08:13:03;31.92;;;20.55;;
32533;SDS011;18973;48.580;8.912;2023-03-01T08:15:28;33.25;;;19.35;;
32533;SDS011;18973;48.580;8.912;2023-03-01T08:17:54;35.83;;;19.52;;
32533;SDS011;18973;48.580;8.912;2023-03-01T08:20:20;31.98;;;19.45;;
32533;SDS011;18973;48.580;8.912;2023-03-01T08:22:45;34.53;;;19.60;;
32533;SDS011;18973;48.580;8.912;2023-03-01T08:25:11;33.92;;;22.48;;
32533;SDS011;18973;48.580;8.912;2023-03-01T08:27:37;40.38;;;21.48;;
32533;SDS011;18973;48.580;8.912;2023-03-01T08:30:03;35.88;;;20.65;;
32533;SDS011;18973;48.580;8.912;2023-03-01T08:32:32;33.03;;;19.58;;
32533;SDS011;18973;48.580;8.912;2023-03-01T08:35:01;30.73;;;20.13;;
32533;SDS011;18973;48.580;8.912;2023-03-01T08:37:27;33.28;;;18.92;;
32533;SDS011;18973;48.580;8.912;2023-03-01T08:39:55;30.48;;;19.98;;
32533;SDS011;18973;48.580;8.912;2023-03-01T08:42:21;35.40;;;20.73;;
32533;SDS011;18973;48.580;8.912;2023-03-01T08:44:47;28.15;;;18.90;;
32533;SDS011;18973;48.580;8.912;2023-03-01T08:47:13;33.40;;;19.77;;
32533;SDS011;18973;48.580;8.912;2023-03-01T08:49:39;33.70;;;20.13;;
32533;SDS011;18973;48.580;8.912;2023-03-01T08:52:05;31.83;;;20.00;;
32533;SDS011;18973;48.580;8.912;2023-03-01T08:54:30;33.95;;;20.85;;
32533;SDS011;18973;48.580;8.912;2023-03-01T08:56:56;32.78;;;20.20;;
32533;SDS011;18973;48.580;8.912;2023-03-01T08:59:24;33.08;;;21.08;;
32533;SDS011;18973;48.580;8.912;2023-03-01T09:01:51;33.05;;;19.20;;
32533;SDS011;18973;48.580;8.912;2023-03-01T09:04:16;30.58;;;19.17;;
32533;SDS011;18973;48.580;8.912;2023-03-01T09:06:42;34.17;;;21.65;;
32533;SDS011;18973;48.580;8.912;2023-03-01T09:09:12;30.55;;;20.60;;
32533;SDS011;18973;48.580;8.912;2023-03-01T09:11:43;32.33;;;20.98;;
32533;SDS011;18973;48.580;8.912;2023-03-01T09:14:11;31.02;;;20.15;;
32533;SDS011;18973;48.580;8.912;2023-03-01T09:16:38;37.80;;;20.58;;
32533;SDS011;18973;48.580;8.912;2023-03-01T09:19:04;37.72;;;20.25;;
32533;SDS011;18973;48.580;8.912;2023-03-01T09:21:30;32.45;;;21.20;;
32533;SDS011;18973;48.580;8.912;2023-03-01T09:23:56;37.55;;;22.10;;
32533;SDS011;18973;48.580;8.912;2023-03-01T09:26:22;31.10;;;19.77;;
32533;SDS011;18973;48.580;8.912;2023-03-01T09:28:49;36.83;;;22.27;;
32533;SDS011;18973;48.580;8.912;2023-03-01T09:31:17;29.17;;;20.17;;
32533;SDS011;18973;48.580;8.912;2023-03-01T09:33:45;28.52;;;19.83;;
32533;SDS011;18973;48.580;8.912;2023-03-01T09:36:14;32.95;;;19.50;;
32533;SDS011;18973;48.580;8.912;2023-03-01T09:38:44;32.72;;;19.33;;
32533;SDS011;18973;48.580;8.912;2023-03-01T09:46:42;29.77;;;18.85;;
32533;SDS011;18973;48.580;8.912;2023-03-01T09:49:20;36.05;;;21.25;;
32533;SDS011;18973;48.580;8.912;2023-03-01T09:52:03;36.20;;;20.27;;
32533;SDS011;18973;48.580;8.912;2023-03-01T09:54:48;29.08;;;19.13;;
32533;SDS011;18973;48.580;8.912;2023-03-01T09:57:19;32.05;;;20.02;;
32533;SDS011;18973;48.580;8.912;2023-03-01T10:03:21;30.55;;;20.67;;
32533;SDS011;18973;48.580;8.912;2023-03-01T10:06:19;32.83;;;20.58;;
32533;SDS011;18973;48.580;8.912;2023-03-01T10:08:55;31.70;;;20.95;;
32533;SDS011;18973;48.580;8.912;2023-03-01T10:11:30;34.00;;;20.65;;
32533;SDS011;18973;48.580;8.912;2023-03-01T10:14:09;30.30;;;19.48;;
32533;SDS011;18973;48.580;8.912;2023-03-01T10:16:50;35.13;;;20.48;;
32533;SDS011;18973;48.580;8.912;2023-03-01T10:19:24;35.75;;;20.80;;
32533;SDS011;18973;48.580;8.912;2023-03-01T10:21:57;30.13;;;19.35;;
32533;SDS011;18973;48.580;8.912;2023-03-01T10:24:34;32.55;;;19.85;;
32533;SDS011;18973;48.580;8.912;2023-03-01T10:27:04;33.20;;;19.55;;
32533;SDS011;18973;48.580;8.912;2023-03-01T10:29:43;31.70;;;19.27;;
32533;SDS011;18973;48.580;8.912;2023-03-01T10:32:18;28.90;;;18.52;;
32533;SDS011;18973;48.580;8.912;2023-03-01T10:34:43;28.70;;;18.83;;
32533;SDS011;18973;48.580;8.912;2023-03-01T10:37:16;29.98;;;19.05;;
32533;SDS011;18973;48.580;8.912;2023-03-01T10:39:56;31.63;;;19.13;;
32533;SDS011;18973;48.580;8.912;2023-03-01T10:42:37;32.08;;;19.45;;
32533;SDS011;18973;48.580;8.912;2023-03-01T10:48:14;30.85;;;20.00;;
32533;SDS011;18973;48.580;8.912;2023-03-01T10:50:44;30.30;;;18.63;;
32533;SDS011;18973;48.580;8.912;2023-03-01T10:53:24;31.25;;;18.98;;
32533;SDS011;18973;48.580;8.912;2023-03-01T10:56:01;27.95;;;18.80;;
32533;SDS011;18973;48.580;8.912;2023-03-01T10:58:30;31.58;;;18.35;;
32533;SDS011;18973;48.580;8.912;2023-03-01T11:00:59;25.35;;;17.65;;
32533;SDS011;18973;48.580;8.912;2023-03-01T11:03:28;28.23;;;19.73;;
32533;SDS011;18973;48.580;8.912;2023-03-01T11:05:57;35.20;;;18.45;;
32533;SDS011;18973;48.580;8.912;2023-03-01T11:11:04;29.75;;;18.38;;
32533;SDS011;18973;48.580;8.912;2023-03-01T11:13:55;29.02;;;19.52;;
32533;SDS011;18973;48.580;8.912;2023-03-01T11:16:28;25.30;;;17.85;;
32533;SDS011;18973;48.580;8.912;2023-03-01T11:19:14;28.30;;;18.20;;
32533;SDS011;18973;48.580;8.912;2023-03-01T11:24:52;27.33;;;17.38;;
32533;SDS011;18973;48.580;8.912;2023-03-01T11:27:27;33.88;;;19.25;;
32533;SDS011;18973;48.580;8.912;2023-03-01T11:30:04;31.33;;;18.33;;
32533;SDS011;18973;48.580;8.912;2023-03-01T11:32:44;29.83;;;18.85;;
32533;SDS011;18973;48.580;8.912;2023-03-01T11:35:20;30.73;;;19.25;;
32533;SDS011;18973;48.580;8.912;2023-03-01T11:37:58;26.87;;;18.67;;
32533;SDS011;18973;48.580;8.912;2023-03-01T11:40:35;33.88;;;19.50;;
32533;SDS011;18973;48.580;8.912;2023-03-01T11:51:43;31.52;;;19.90;;
32533;SDS011;18973;48.580;8.912;2023-03-01T12:08:31;29.15;;;18.55;;
32533;SDS011;18973;48.580;8.912;2023-03-01T12:28:19;31.52;;;17.80;;
32533;SDS011;18973;48.580;8.912;2023-03-01T12:31:16;26.08;;;16.38;;
32533;SDS011;18973;48.580;8.912;2023-03-01T12:36:47;25.45;;;16.73;;
32533;SDS011;18973;48.580;8.912;2023-03-01T12:39:23;23.95;;;16.33;;
32533;SDS011;18973;48.580;8.912;2023-03-01T12:42:13;28.30;;;17.40;;
32533;SDS011;18973;48.580;8.912;2023-03-01T12:50:39;27.77;;;18.27;;
32533;SDS011;18973;48.580;8.912;2023-03-01T12:53:13;29.80;;;18.05;;
32533;SDS011;18973;48.580;8.912;2023-03-01T12:55:49;27.58;;;18.45;;
32533;SDS011;18973;48.580;8.912;2023-03-01T13:01:31;26.63;;;17.50;;
32533;SDS011;18973;48.580;8.912;2023-03-01T13:20:16;29.15;;;17.70;;
32533;SDS011;18973;48.580;8.912;2023-03-01T13:22:45;25.65;;;16.55;;
32533;SDS011;18973;48.580;8.912;2023-03-01T13:25:13;29.63;;;16.90;;
32533;SDS011;18973;48.580;8.912;2023-03-01T13:27:44;27.83;;;17.13;;
32533;SDS011;18973;48.580;8.912;2023-03-01T13:35:52;31.33;;;19.10;;
32533;SDS011;18973;48.580;8.912;2023-03-01T13:41:10;27.27;;;17.70;;
32533;SDS011;18973;48.580;8.912;2023-03-01T13:43:38;69.20;;;34.10;;
32533;SDS011;18973;48.580;8.912;2023-03-01T13:46:08;40.05;;;23.90;;
32533;SDS011;18973;48.580;8.912;2023-03-01T13:48:47;40.70;;;23.75;;
32533;SDS011;18973;48.580;8.912;2023-03-01T13:51:20;32.40;;;19.45;;
32533;SDS011;18973;48.580;8.912;2023-03-01T13:53:50;28.25;;;17.50;;
32533;SDS011;18973;48.580;8.912;2023-03-01T13:56:24;25.90;;;17.33;;
32533;SDS011;18973;48.580;8.912;2023-03-01T13:58:59;55.72;;;29.85;;
32533;SDS011;18973;48.580;8.912;2023-03-01T14:01:33;28.73;;;17.85;;
32533;SDS011;18973;48.580;8.912;2023-03-01T14:04:01;58.50;;;33.83;;
32533;SDS011;18973;48.580;8.912;2023-03-01T14:06:28;34.33;;;18.77;;
32533;SDS011;18973;48.580;8.912;2023-03-01T14:09:14;25.38;;;17.00;;
32533;SDS011;18973;48.580;8.912;2023-03-01T14:20:09;27.80;;;17.13;;
32533;SDS011;18973;48.580;8.912;2023-03-01T14:22:38;38.28;;;25.13;;
32533;SDS011;18973;48.580;8.912;2023-03-01T14:25:17;25.75;;;16.63;;
32533;SDS011;18973;48.580;8.912;2023-03-01T14:27:44;23.88;;;16.02;;
32533;SDS011;18973;48.580;8.912;2023-03-01T14:30:19;25.13;;;16.88;;
32533;SDS011;18973;48.580;8.912;2023-03-01T14:32:54;25.75;;;16.73;;
32533;SDS011;18973;48.580;8.912;2023-03-01T14:35:24;24.52;;;16.70;;
32533;SDS011;18973;48.580;8.912;2023-03-01T14:37:54;28.80;;;17.83;;
32533;SDS011;18973;48.580;8.912;2023-03-01T14:40:21;24.10;;;15.02;;
32533;SDS011;18973;48.580;8.912;2023-03-01T14:42:49;23.50;;;16.42;;
32533;SDS011;18973;48.580;8.912;2023-03-01T14:45:16;22.90;;;15.65;;
32533;SDS011;18973;48.580;8.912;2023-03-01T14:47:43;28.60;;;15.80;;
32533;SDS011;18973;48.580;8.912;2023-03-01T14:50:23;26.67;;;16.33;;
32533;SDS011;18973;48.580;8.912;2023-03-01T14:52:50;27.23;;;15.70;;
32533;SDS011;18973;48.580;8.912;2023-03-01T14:55:20;23.77;;;15.48;;
32533;SDS011;18973;48.580;8.912;2023-03-01T14:57:50;24.83;;;16.08;;
32533;SDS011;18973;48.580;8.912;2023-03-01T15:00:18;21.40;;;14.93;;
32533;SDS011;18973;48.580;8.912;2023-03-01T15:02:47;21.95;;;15.98;;
32533;SDS011;18973;48.580;8.912;2023-03-01T15:05:15;26.00;;;15.63;;
32533;SDS011;18973;48.580;8.912;2023-03-01T15:07:45;25.80;;;15.73;;
32533;SDS011;18973;48.580;8.912;2023-03-01T15:10:20;28.58;;;15.35;;
32533;SDS011;18973;48.580;8.912;2023-03-01T15:12:50;26.55;;;16.17;;
32533;SDS011;18973;48.580;8.912;2023-03-01T15:15:34;27.48;;;19.40;;
32533;SDS011;18973;48.580;8.912;2023-03-01T15:18:04;28.23;;;18.45;;
32533;SDS011;18973;48.580;8.912;2023-03-01T15:20:41;30.35;;;18.88;;
32533;SDS011;18973;48.580;8.912;2023-03-01T15:23:13;28.48;;;17.13;;
32533;SDS011;18973;48.580;8.912;2023-03-01T15:25:48;34.00;;;20.00;;
32533;SDS011;18973;48.580;8.912;2023-03-01T15:28:22;27.05;;;18.02;;
32533;SDS011;18973;48.580;8.912;2023-03-01T15:30:54;33.80;;;19.33;;
32533;SDS011;18973;48.580;8.912;2023-03-01T15:38:59;30.08;;;19.45;;
32533;SDS011;18973;48.580;8.912;2023-03-01T15:41:29;33.83;;;19.33;;
32533;SDS011;18973;48.580;8.912;2023-03-01T15:44:01;39.60;;;24.30;;
32533;SDS011;18973;48.580;8.912;2023-03-01T15:46:49;31.52;;;18.80;;
32533;SDS011;18973;48.580;8.912;2023-03-01T15:49:58;41.80;;;23.30;;
32533;SDS011;18973;48.580;8.912;2023-03-01T15:52:27;32.50;;;19.27;;
32533;SDS011;18973;48.580;8.912;2023-03-01T15:55:02;32.30;;;20.27;;
32533;SDS011;18973;48.580;8.912;2023-03-01T15:57:30;37.00;;;22.08;;
32533;SDS011;18973;48.580;8.912;2023-03-01T15:59:56;37.42;;;24.02;;
32533;SDS011;18973;48.580;8.912;2023-03-01T16:02:22;29.38;;;19.45;;
32533;SDS011;18973;48.580;8.912;2023-03-01T16:04:48;30.48;;;19.35;;
32533;SDS011;18973;48.580;8.912;2023-03-01T16:07:14;37.20;;;24.05;;
32533;SDS011;18973;48.580;8.912;2023-03-01T16:09:40;34.78;;;20.85;;
32533;SDS011;18973;48.580;8.912;2023-03-01T16:12:11;30.17;;;18.70;;
32533;SDS011;18973;48.580;8.912;2023-03-01T16:14:39;39.90;;;24.88;;
32533;SDS011;18973;48.580;8.912;2023-03-01T16:17:05;34.85;;;19.98;;
32533;SDS011;18973;48.580;8.912;2023-03-01T16:19:33;31.38;;;20.65;;
32533;SDS011;18973;48.580;8.912;2023-03-01T16:21:58;32.92;;;20.17;;
32533;SDS011;18973;48.580;8.912;2023-03-01T16:24:24;33.67;;;19.90;;
32533;SDS011;18973;48.580;8.912;2023-03-01T16:26:51;35.10;;;19.95;;
32533;SDS011;18973;48.580;8.912;2023-03-01T16:29:16;34.45;;;21.98;;
32533;SDS011;18973;48.580;8.912;2023-03-01T16:31:42;31.58;;;20.50;;
32533;SDS011;18973;48.580;8.912;2023-03-01T16:34:08;33.83;;;19.65;;
32533;SDS011;18973;48.580;8.912;2023-03-01T16:36:33;35.70;;;21.70;;
32533;SDS011;18973;48.580;8.912;2023-03-01T16:38:59;33.28;;;19.95;;
32533;SDS011;18973;48.580;8.912;2023-03-01T16:41:26;35.80;;;20.23;;
32533;SDS011;18973;48.580;8.912;2023-03-01T16:43:52;35.40;;;22.00;;